La Verne, CA (91750)

2:10 AM PDT on May 27, 2015 (GMT -0700)
Bonita High School | | Change Station
CLOSE
Current Station
Personal Weather Station
Location: La Verne, CA
Elevation: 1049 ft
Nearby Weather Stations

Elev 1049 ft 34.11 °N, 117.76 °W | Updated 44 seconds ago

Overcast
Overcast
58.2 °F
Feels Like 58.2 °F
N
0.0
Wind Variable Wind from NW
Gusts 0.0 mph

Today
High -- | Low -- °F
--% Chance of Precip.
Yesterday
High -- | Low -- °F
Precip. -- in
5:42 AM 7:54 PM
Waxing Gibbous, 65% visible
Pressure 29.97 in
Visibility 5.0 miles
Clouds Overcast 1300 ft
Dew Point 54 °F
Humidity 87%
Rainfall 0.00 in
Snow Depth Not available.
UV 0 out of 12
Pollen 4.70 out of 12
Air Quality Not available.
Flu Activity Sporadic
METAR KONT 270753Z 27006KT 5SM HZ OVC013 15/12 A2999 RMK AO2 SLP148 T01500117 402500144

More Conditions Fewer Conditions

Pressure 29.97 in
Visibility 5.0 miles
Clouds Overcast 1300 ft
Dew Point 54 °F
Humidity 87%
Rainfall 0.00 in
Snow Depth Not available.
UV 0 out of 12
Pollen 4.70 out of 12
Air Quality Not available.
Flu Activity Sporadic
METAR KONT 270753Z 27006KT 5SM HZ OVC013 15/12 A2999 RMK AO2 SLP148 T01500117 402500144

More Conditions Fewer Conditions

10-Day Weather Forecast

Almanac

Astronomy

May. 27, 2015 Rise Set
Actual Time
Civil Twilight
Nautical Twilight
Astronomical Twilight
Moon
Length of Visible Light
Length of Day
Tomorrow will be .
, % of the Moon is Illuminated

Today's Extremes

State Highs State Lows

Community

WunderPhotos

Upload Photos

1,824,634 photos uploaded!

WunderBlogs® & News

Nearby

Air Quality

  Air Quality AQ Index Pollutant
Not available.

Snow Depth

Station Depth Elevation

Earthquake Activity

City Distance Mag. Time & Date
Minimum magnitude displayed is 2.5.

Coastal Water Temperatures

Place Temperature

Stations

Nearby Weather Stations

Station Location Temp. Windchill Dew Point Humidity Wind Precip. Elev Updated Type